sensor_id;sensor_type;location;lat;lon;timestamp;pressure;altitude;pressure_sealevel;temperature;humidity
64521;BME280;50896;46.714;17.322;2024-03-08T00:00:12;100834.53;;;5.29;100.00
64521;BME280;50896;46.714;17.322;2024-03-08T00:02:42;100827.25;;;5.33;100.00
64521;BME280;50896;46.714;17.322;2024-03-08T00:05:10;100838.75;;;5.43;100.00
64521;BME280;50896;46.714;17.322;2024-03-08T00:07:38;100830.84;;;5.43;100.00
64521;BME280;50896;46.714;17.322;2024-03-08T00:10:06;100833.47;;;5.43;100.00
64521;BME280;50896;46.714;17.322;2024-03-08T00:12:39;100834.28;;;5.44;100.00
64521;BME280;50896;46.714;17.322;2024-03-08T00:15:08;100836.34;;;5.40;100.00
64521;BME280;50896;46.714;17.322;2024-03-08T00:17:36;100826.38;;;5.33;100.00
64521;BME280;50896;46.714;17.322;2024-03-08T00:20:03;100832.41;;;5.46;100.00
64521;BME280;50896;46.714;17.322;2024-03-08T00:22:35;100823.50;;;5.36;100.00
64521;BME280;50896;46.714;17.322;2024-03-08T00:25:06;100828.69;;;5.37;100.00
64521;BME280;50896;46.714;17.322;2024-03-08T00:27:36;100826.06;;;5.37;100.00
64521;BME280;50896;46.714;17.322;2024-03-08T00:30:05;100827.25;;;5.33;100.00
64521;BME280;50896;46.714;17.322;2024-03-08T00:32:32;100829.63;;;5.36;100.00
64521;BME280;50896;46.714;17.322;2024-03-08T00:35:00;100824.00;;;5.41;100.00
64521;BME280;50896;46.714;17.322;2024-03-08T00:37:26;100814.28;;;5.41;100.00
64521;BME280;50896;46.714;17.322;2024-03-08T00:39:53;100828.44;;;5.40;100.00
64521;BME280;50896;46.714;17.322;2024-03-08T00:42:20;100817.78;;;5.42;100.00
64521;BME280;50896;46.714;17.322;2024-03-08T00:44:47;100818.00;;;5.39;100.00
64521;BME280;50896;46.714;17.322;2024-03-08T00:47:18;100811.53;;;5.43;100.00
64521;BME280;50896;46.714;17.322;2024-03-08T00:49:45;100820.41;;;5.30;100.00
64521;BME280;50896;46.714;17.322;2024-03-08T00:52:13;100815.59;;;5.36;100.00
64521;BME280;50896;46.714;17.322;2024-03-08T00:54:40;100812.72;;;5.27;100.00
64521;BME280;50896;46.714;17.322;2024-03-08T00:57:07;100815.50;;;5.37;100.00
64521;BME280;50896;46.714;17.322;2024-03-08T00:59:34;100809.97;;;5.29;100.00
64521;BME280;50896;46.714;17.322;2024-03-08T01:02:01;100804.91;;;5.26;100.00
64521;BME280;50896;46.714;17.322;2024-03-08T01:04:29;100817.88;;;5.29;100.00
64521;BME280;50896;46.714;17.322;2024-03-08T01:06:57;100818.13;;;5.37;100.00
64521;BME280;50896;46.714;17.322;2024-03-08T01:09:24;100805.03;;;5.24;100.00
64521;BME280;50896;46.714;17.322;2024-03-08T01:11:51;100801.56;;;5.24;100.00
64521;BME280;50896;46.714;17.322;2024-03-08T01:14:21;100796.41;;;5.22;100.00
64521;BME280;50896;46.714;17.322;2024-03-08T01:16:58;100806.34;;;5.30;100.00
64521;BME280;50896;46.714;17.322;2024-03-08T01:19:25;100816.31;;;5.38;100.00
64521;BME280;50896;46.714;17.322;2024-03-08T01:21:52;100806.25;;;5.31;100.00
64521;BME280;50896;46.714;17.322;2024-03-08T01:24:19;100803.03;;;5.28;100.00
64521;BME280;50896;46.714;17.322;2024-03-08T01:26:46;100800.38;;;5.28;100.00
64521;BME280;50896;46.714;17.322;2024-03-08T01:29:14;100803.84;;;5.40;100.00
64521;BME280;50896;46.714;17.322;2024-03-08T01:31:41;100795.81;;;5.30;100.00
64521;BME280;50896;46.714;17.322;2024-03-08T01:34:07;100792.34;;;5.29;100.00
64521;BME280;50896;46.714;17.322;2024-03-08T01:36:34;100797.25;;;5.34;100.00
64521;BME280;50896;46.714;17.322;2024-03-08T01:39:04;100794.41;;;5.37;100.00
64521;BME280;50896;46.714;17.322;2024-03-08T01:41:35;100778.34;;;5.29;100.00
64521;BME280;50896;46.714;17.322;2024-03-08T01:44:02;100785.06;;;5.33;100.00
64521;BME280;50896;46.714;17.322;2024-03-08T01:46:30;100784.31;;;5.31;100.00
64521;BME280;50896;46.714;17.322;2024-03-08T01:48:57;100781.09;;;5.39;100.00
64521;BME280;50896;46.714;17.322;2024-03-08T01:51:25;100785.75;;;5.46;100.00
64521;BME280;50896;46.714;17.322;2024-03-08T01:53:51;100784.06;;;5.45;100.00
64521;BME280;50896;46.714;17.322;2024-03-08T01:56:19;100777.03;;;5.46;100.00
64521;BME280;50896;46.714;17.322;2024-03-08T01:58:46;100779.28;;;5.39;100.00
64521;BME280;50896;46.714;17.322;2024-03-08T02:01:15;100777.72;;;5.48;100.00
64521;BME280;50896;46.714;17.322;2024-03-08T02:03:43;100772.69;;;5.34;100.00
64521;BME280;50896;46.714;17.322;2024-03-08T02:06:12;100776.53;;;5.29;100.00
64521;BME280;50896;46.714;17.322;2024-03-08T02:08:45;100775.69;;;5.40;100.00
64521;BME280;50896;46.714;17.322;2024-03-08T02:11:13;100775.22;;;5.35;100.00
64521;BME280;50896;46.714;17.322;2024-03-08T02:13:40;100766.34;;;5.25;100.00
64521;BME280;50896;46.714;17.322;2024-03-08T02:16:07;100774.25;;;5.36;100.00
64521;BME280;50896;46.714;17.322;2024-03-08T02:18:35;100762.53;;;5.29;100.00
64521;BME280;50896;46.714;17.322;2024-03-08T02:21:04;100766.09;;;5.28;100.00
64521;BME280;50896;46.714;17.322;2024-03-08T02:23:32;100768.25;;;5.23;100.00
64521;BME280;50896;46.714;17.322;2024-03-08T02:26:00;100771.50;;;5.26;100.00
64521;BME280;50896;46.714;17.322;2024-03-08T02:28:27;100771.97;;;5.31;100.00
64521;BME280;50896;46.714;17.322;2024-03-08T02:30:54;100763.09;;;5.21;100.00
64521;BME280;50896;46.714;17.322;2024-03-08T02:33:23;100763.22;;;5.31;100.00
64521;BME280;50896;46.714;17.322;2024-03-08T02:35:51;100760.47;;;5.21;100.00
64521;BME280;50896;46.714;17.322;2024-03-08T02:38:20;100769.56;;;5.28;100.00
64521;BME280;50896;46.714;17.322;2024-03-08T02:40:48;100767.19;;;5.25;100.00
64521;BME280;50896;46.714;17.322;2024-03-08T02:43:16;100768.38;;;5.21;100.00
64521;BME280;50896;46.714;17.322;2024-03-08T02:45:44;100761.28;;;5.22;100.00
64521;BME280;50896;46.714;17.322;2024-03-08T02:48:15;100755.44;;;5.18;100.00
64521;BME280;50896;46.714;17.322;2024-03-08T02:50:45;100762.41;;;5.19;100.00
64521;BME280;50896;46.714;17.322;2024-03-08T02:53:13;100763.09;;;5.21;100.00
64521;BME280;50896;46.714;17.322;2024-03-08T02:55:41;100769.19;;;5.22;100.00
64521;BME280;50896;46.714;17.322;2024-03-08T02:58:08;100768.00;;;5.26;100.00
64521;BME280;50896;46.714;17.322;2024-03-08T03:00:37;100772.56;;;5.24;100.00
64521;BME280;50896;46.714;17.322;2024-03-08T03:03:07;100767.31;;;5.24;100.00
64521;BME280;50896;46.714;17.322;2024-03-08T03:05:34;100766.34;;;5.25;100.00
64521;BME280;50896;46.714;17.322;2024-03-08T03:08:02;100765.16;;;5.29;100.00
64521;BME280;50896;46.714;17.322;2024-03-08T03:10:30;100773.19;;;5.27;100.00
64521;BME280;50896;46.714;17.322;2024-03-08T03:12:57;100772.44;;;5.25;100.00
64521;BME280;50896;46.714;17.322;2024-03-08T03:15:24;100778.34;;;5.29;100.00
64521;BME280;50896;46.714;17.322;2024-03-08T03:17:53;100773.41;;;5.24;100.00
64521;BME280;50896;46.714;17.322;2024-03-08T03:20:22;100776.91;;;5.25;100.00
64521;BME280;50896;46.714;17.322;2024-03-08T03:23:10;100773.16;;;5.16;100.00
64521;BME280;50896;46.714;17.322;2024-03-08T03:25:40;100771.38;;;5.17;100.00
64521;BME280;50896;46.714;17.322;2024-03-08T03:28:08;100773.78;;;5.20;100.00
64521;BME280;50896;46.714;17.322;2024-03-08T03:30:37;100773.16;;;5.16;100.00
64521;BME280;50896;46.714;17.322;2024-03-08T03:33:04;100773.88;;;5.18;100.00
64521;BME280;50896;46.714;17.322;2024-03-08T03:35:35;100770.19;;;5.09;100.00
64521;BME280;50896;46.714;17.322;2024-03-08T03:38:04;100770.25;;;5.08;100.00
64521;BME280;50896;46.714;17.322;2024-03-08T03:40:31;100767.28;;;5.12;100.00
64521;BME280;50896;46.714;17.322;2024-03-08T03:42:58;100770.63;;;5.14;100.00
64521;BME280;50896;46.714;17.322;2024-03-08T03:45:25;100772.09;;;5.19;100.00
64521;BME280;50896;46.714;17.322;2024-03-08T03:47:52;100771.38;;;5.17;100.00
64521;BME280;50896;46.714;17.322;2024-03-08T03:50:19;100778.53;;;5.14;100.00
64521;BME280;50896;46.714;17.322;2024-03-08T03:52:46;100762.72;;;5.14;100.00
64521;BME280;50896;46.714;17.322;2024-03-08T03:55:14;100774.13;;;5.26;100.00
64521;BME280;50896;46.714;17.322;2024-03-08T03:57:41;100772.44;;;5.25;100.00
64521;BME280;50896;46.714;17.322;2024-03-08T04:00:08;100766.69;;;5.20;100.00
64521;BME280;50896;46.714;17.322;2024-03-08T04:02:40;100768.13;;;5.36;100.00
64521;BME280;50896;46.714;17.322;2024-03-08T04:05:08;100766.81;;;5.30;100.00
64521;BME280;50896;46.714;17.322;2024-03-08T04:07:37;100759.63;;;5.21;100.00
64521;BME280;50896;46.714;17.322;2024-03-08T04:10:05;100764.28;;;5.17;100.00
64521;BME280;50896;46.714;17.322;2024-03-08T04:12:33;100762.28;;;5.21;100.00
64521;BME280;50896;46.714;17.322;2024-03-08T04:15:00;100766.56;;;5.22;100.00
64521;BME280;50896;46.714;17.322;2024-03-08T04:17:27;100767.91;;;5.27;100.00
64521;BME280;50896;46.714;17.322;2024-03-08T04:19:55;100770.88;;;5.23;100.00
64521;BME280;50896;46.714;17.322;2024-03-08T04:22:21;100763.81;;;5.12;100.00
64521;BME280;50896;46.714;17.322;2024-03-08T04:24:49;100766.44;;;5.12;100.00
64521;BME280;50896;46.714;17.322;2024-03-08T04:27:15;100770.38;;;5.06;100.00
64521;BME280;50896;46.714;17.322;2024-03-08T04:29:42;100776.13;;;5.00;100.00
64521;BME280;50896;46.714;17.322;2024-03-08T04:32:09;100772.75;;;4.98;100.00
64521;BME280;50896;46.714;17.322;2024-03-08T04:34:36;100773.25;;;4.92;100.00
64521;BME280;50896;46.714;17.322;2024-03-08T04:37:03;100771.09;;;4.86;100.00
64521;BME280;50896;46.714;17.322;2024-03-08T04:39:31;100774.81;;;4.94;100.00
64521;BME280;50896;46.714;17.322;2024-03-08T04:42:01;100768.09;;;4.90;100.00
64521;BME280;50896;46.714;17.322;2024-03-08T04:44:33;100779.25;;;4.94;100.00
64521;BME280;50896;46.714;17.322;2024-03-08T04:47:00;100778.53;;;4.92;100.00
64521;BME280;50896;46.714;17.322;2024-03-08T04:49:27;100790.88;;;4.91;100.00
64521;BME280;50896;46.714;17.322;2024-03-08T04:51:55;100777.06;;;4.88;100.00
64521;BME280;50896;46.714;17.322;2024-03-08T04:54:21;100784.84;;;4.89;100.00
64521;BME280;50896;46.714;17.322;2024-03-08T04:56:48;100780.91;;;4.95;100.00
64521;BME280;50896;46.714;17.322;2024-03-08T04:59:15;100786.53;;;4.90;100.00
64521;BME280;50896;46.714;17.322;2024-03-08T05:01:42;100793.13;;;4.85;100.00
64521;BME280;50896;46.714;17.322;2024-03-08T05:04:09;100777.44;;;4.83;100.00
64521;BME280;50896;46.714;17.322;2024-03-08T05:06:36;100783.66;;;4.82;100.00
64521;BME280;50896;46.714;17.322;2024-03-08T05:09:03;100781.25;;;4.79;100.00
64521;BME280;50896;46.714;17.322;2024-03-08T05:11:41;100778.94;;;4.74;100.00
64521;BME280;50896;46.714;17.322;2024-03-08T05:14:10;100791.16;;;4.75;100.00
64521;BME280;50896;46.714;17.322;2024-03-08T05:16:36;100790.56;;;4.72;100.00
64521;BME280;50896;46.714;17.322;2024-03-08T05:19:03;100789.72;;;4.71;100.00
64521;BME280;50896;46.714;17.322;2024-03-08T05:21:30;100782.28;;;4.65;100.00
64521;BME280;50896;46.714;17.322;2024-03-08T05:23:57;100792.81;;;4.65;100.00
64521;BME280;50896;46.714;17.322;2024-03-08T05:26:23;100791.88;;;4.66;100.00
64521;BME280;50896;46.714;17.322;2024-03-08T05:28:50;100792.06;;;4.63;100.00
64521;BME280;50896;46.714;17.322;2024-03-08T05:31:21;100787.50;;;4.54;100.00
64521;BME280;50896;46.714;17.322;2024-03-08T05:33:50;100801.78;;;4.62;100.00
64521;BME280;50896;46.714;17.322;2024-03-08T05:36:17;100806.81;;;4.66;100.00
64521;BME280;50896;46.714;17.322;2024-03-08T05:38:44;100805.03;;;4.66;100.00
64521;BME280;50896;46.714;17.322;2024-03-08T05:41:11;100804.06;;;4.67;100.00
64521;BME280;50896;46.714;17.322;2024-03-08T05:43:41;100798.53;;;4.59;100.00
64521;BME280;50896;46.714;17.322;2024-03-08T05:46:08;100807.28;;;4.59;100.00
64521;BME280;50896;46.714;17.322;2024-03-08T05:48:35;100803.53;;;4.51;100.00
64521;BME280;50896;46.714;17.322;2024-03-08T05:51:02;100804.50;;;4.50;100.00
64521;BME280;50896;46.714;17.322;2024-03-08T05:53:29;100813.63;;;4.57;100.00
64521;BME280;50896;46.714;17.322;2024-03-08T05:55:58;100818.66;;;4.60;100.00
64521;BME280;50896;46.714;17.322;2024-03-08T05:58:25;100817.94;;;4.58;100.00
64521;BME280;50896;46.714;17.322;2024-03-08T06:00:52;100821.28;;;4.60;100.00
64521;BME280;50896;46.714;17.322;2024-03-08T06:03:19;100817.47;;;4.64;100.00
64521;BME280;50896;46.714;17.322;2024-03-08T06:05:48;100813.63;;;4.57;100.00
64521;BME280;50896;46.714;17.322;2024-03-08T06:08:16;100823.78;;;4.61;100.00
64521;BME280;50896;46.714;17.322;2024-03-08T06:10:43;100831.47;;;4.65;100.00
64521;BME280;50896;46.714;17.322;2024-03-08T06:13:10;100827.28;;;4.62;100.00
64521;BME280;50896;46.714;17.322;2024-03-08T06:15:39;100826.44;;;4.61;100.00
64521;BME280;50896;46.714;17.322;2024-03-08T06:18:06;100841.28;;;4.62;100.00
64521;BME280;50896;46.714;17.322;2024-03-08T06:20:33;100829.94;;;4.62;100.00
64521;BME280;50896;46.714;17.322;2024-03-08T06:23:00;100831.00;;;4.59;100.00
64521;BME280;50896;46.714;17.322;2024-03-08T06:25:28;100834.72;;;4.68;100.00
64521;BME280;50896;46.714;17.322;2024-03-08T06:27:54;100824.31;;;4.67;100.00
64521;BME280;50896;46.714;17.322;2024-03-08T06:30:21;100837.97;;;4.72;100.00
64521;BME280;50896;46.714;17.322;2024-03-08T06:32:49;100840.28;;;4.76;100.00
64521;BME280;50896;46.714;17.322;2024-03-08T06:35:16;100845.66;;;4.75;100.00
64521;BME280;50896;46.714;17.322;2024-03-08T06:37:43;100848.56;;;4.83;100.00
64521;BME280;50896;46.714;17.322;2024-03-08T06:40:11;100852.28;;;4.92;100.00
64521;BME280;50896;46.714;17.322;2024-03-08T06:42:41;100852.06;;;4.95;100.00
64521;BME280;50896;46.714;17.322;2024-03-08T06:45:08;100841.88;;;4.90;100.00
64521;BME280;50896;46.714;17.322;2024-03-08T06:47:36;100860.47;;;5.00;100.00
64521;BME280;50896;46.714;17.322;2024-03-08T06:50:04;100849.19;;;4.98;100.00
64521;BME280;50896;46.714;17.322;2024-03-08T06:52:32;100849.31;;;4.96;100.00
64521;BME280;50896;46.714;17.322;2024-03-08T06:54:59;100852.56;;;5.00;100.00
64521;BME280;50896;46.714;17.322;2024-03-08T06:57:28;100857.84;;;5.00;100.00
64521;BME280;50896;46.714;17.322;2024-03-08T06:59:55;100857.59;;;5.03;100.00
64521;BME280;50896;46.714;17.322;2024-03-08T07:02:23;100855.31;;;4.99;100.00
64521;BME280;50896;46.714;17.322;2024-03-08T07:04:54;100854.84;;;5.05;100.00
64521;BME280;50896;46.714;17.322;2024-03-08T07:07:21;100856.66;;;5.16;100.00
64521;BME280;50896;46.714;17.322;2024-03-08T07:09:48;100851.16;;;5.19;100.00
64521;BME280;50896;46.714;17.322;2024-03-08T07:12:16;100851.28;;;5.17;100.00
64521;BME280;50896;46.714;17.322;2024-03-08T07:14:43;100852.28;;;5.27;100.00
64521;BME280;50896;46.714;17.322;2024-03-08T07:17:12;100849.53;;;5.29;100.00
64521;BME280;50896;46.714;17.322;2024-03-08T07:19:39;100857.19;;;5.32;100.00
64521;BME280;50896;46.714;17.322;2024-03-08T07:22:06;100852.63;;;5.34;100.00
64521;BME280;50896;46.714;17.322;2024-03-08T07:24:35;100853.81;;;5.30;100.00
64521;BME280;50896;46.714;17.322;2024-03-08T07:27:20;100851.91;;;5.32;100.00
64521;BME280;50896;46.714;17.322;2024-03-08T07:29:47;100856.72;;;5.38;100.00
64521;BME280;50896;46.714;17.322;2024-03-08T07:32:15;100863.06;;;5.36;100.00
64521;BME280;50896;46.714;17.322;2024-03-08T07:34:48;100854.94;;;5.39;100.00
64521;BME280;50896;46.714;17.322;2024-03-08T07:37:18;100862.00;;;5.50;100.00
64521;BME280;50896;46.714;17.322;2024-03-08T07:39:45;100852.75;;;5.55;100.00
64521;BME280;50896;46.714;17.322;2024-03-08T07:42:12;100858.53;;;5.60;100.00
64521;BME280;50896;46.714;17.322;2024-03-08T07:44:39;100858.16;;;5.65;100.00
64521;BME280;50896;46.714;17.322;2024-03-08T07:47:06;100858.28;;;5.63;100.00
64521;BME280;50896;46.714;17.322;2024-03-08T07:49:36;100851.47;;;5.72;100.00
64521;BME280;50896;46.714;17.322;2024-03-08T07:52:05;100845.94;;;5.87;100.00
64521;BME280;50896;46.714;17.322;2024-03-08T07:54:34;100847.84;;;5.85;100.00
64521;BME280;50896;46.714;17.322;2024-03-08T07:57:01;100858.88;;;5.90;100.00
64521;BME280;50896;46.714;17.322;2024-03-08T07:59:29;100855.19;;;5.92;100.00
64521;BME280;50896;46.714;17.322;2024-03-08T08:01:57;100860.81;;;5.88;100.00
64521;BME280;50896;46.714;17.322;2024-03-08T08:04:24;100861.28;;;5.93;100.00
64521;BME280;50896;46.714;17.322;2024-03-08T08:06:51;100862.97;;;5.94;100.00
64521;BME280;50896;46.714;17.322;2024-03-08T08:09:18;100855.06;;;5.82;100.00
64521;BME280;50896;46.714;17.322;2024-03-08T08:11:55;100859.63;;;5.80;100.00
64521;BME280;50896;46.714;17.322;2024-03-08T08:14:22;100860.00;;;5.98;100.00
64521;BME280;50896;46.714;17.322;2024-03-08T08:16:49;100863.59;;;5.86;100.00
64521;BME280;50896;46.714;17.322;2024-03-08T08:19:19;100860.47;;;5.81;100.00
64521;BME280;50896;46.714;17.322;2024-03-08T08:21:46;100863.47;;;5.88;100.00
64521;BME280;50896;46.714;17.322;2024-03-08T08:24:13;100862.59;;;5.87;100.00
64521;BME280;50896;46.714;17.322;2024-03-08T08:26:40;100859.03;;;5.99;100.00
64521;BME280;50896;46.714;17.322;2024-03-08T08:29:07;100859.63;;;6.14;100.00
64521;BME280;50896;46.714;17.322;2024-03-08T08:31:34;100853.41;;;6.04;100.00
64521;BME280;50896;46.714;17.322;2024-03-08T08:34:01;100865.63;;;6.05;100.00
64521;BME280;50896;46.714;17.322;2024-03-08T08:36:31;100865.16;;;6.11;100.00
64521;BME280;50896;46.714;17.322;2024-03-08T08:38:58;100857.94;;;6.13;100.00
64521;BME280;50896;46.714;17.322;2024-03-08T08:41:25;100863.69;;;6.19;100.00
64521;BME280;50896;46.714;17.322;2024-03-08T08:43:53;100864.88;;;6.26;100.00
64521;BME280;50896;46.714;17.322;2024-03-08T08:46:34;100859.13;;;6.21;100.00
64521;BME280;50896;46.714;17.322;2024-03-08T08:49:07;100861.75;;;6.21;100.00
64521;BME280;50896;46.714;17.322;2024-03-08T08:51:37;100870.88;;;6.28;100.00
64521;BME280;50896;46.714;17.322;2024-03-08T08:54:05;100863.03;;;6.38;100.00
64521;BME280;50896;46.714;17.322;2024-03-08T08:56:37;100857.66;;;6.39;100.00
64521;BME280;50896;46.714;17.322;2024-03-08T08:59:04;100862.09;;;6.39;100.00
64521;BME280;50896;46.714;17.322;2024-03-08T09:01:31;100858.84;;;6.46;100.00
64521;BME280;50896;46.714;17.322;2024-03-08T09:03:58;100851.81;;;6.57;100.00
64521;BME280;50896;46.714;17.322;2024-03-08T09:06:25;100851.16;;;6.76;100.00
64521;BME280;50896;46.714;17.322;2024-03-08T09:08:52;100851.94;;;6.88;100.00
64521;BME280;50896;46.714;17.322;2024-03-08T09:11:19;100857.56;;;6.94;100.00
64521;BME280;50896;46.714;17.322;2024-03-08T09:13:46;100865.22;;;6.97;100.00
64521;BME280;50896;46.714;17.322;2024-03-08T09:16:13;100855.75;;;6.95;100.00
64521;BME280;50896;46.714;17.322;2024-03-08T09:18:41;100859.63;;;6.91;100.00
64521;BME280;50896;46.714;17.322;2024-03-08T09:21:08;100853.38;;;6.92;100.00
64521;BME280;50896;46.714;17.322;2024-03-08T09:23:39;100858.31;;;6.85;100.00
64521;BME280;50896;46.714;17.322;2024-03-08T09:26:08;100845.09;;;6.85;100.00
64521;BME280;50896;46.714;17.322;2024-03-08T09:28:48;100851.94;;;6.88;100.00
64521;BME280;50896;46.714;17.322;2024-03-08T09:31:15;100854.22;;;6.92;100.00
64521;BME280;50896;46.714;17.322;2024-03-08T09:33:42;100858.22;;;6.87;100.00
64521;BME280;50896;46.714;17.322;2024-03-08T09:36:09;100857.09;;;6.89;100.00
64521;BME280;50896;46.714;17.322;2024-03-08T09:38:35;100858.00;;;6.78;100.00
64521;BME280;50896;46.714;17.322;2024-03-08T09:41:02;100852.19;;;6.84;100.00
64521;BME280;50896;46.714;17.322;2024-03-08T09:43:30;100859.75;;;6.89;100.00
64521;BME280;50896;46.714;17.322;2024-03-08T09:45:57;100848.34;;;6.89;100.00
64521;BME280;50896;46.714;17.322;2024-03-08T09:48:25;100860.34;;;6.93;100.00
64521;BME280;50896;46.714;17.322;2024-03-08T09:50:52;100854.28;;;7.02;100.00
64521;BME280;50896;46.714;17.322;2024-03-08T09:53:20;100849.91;;;7.12;100.00
64521;BME280;50896;46.714;17.322;2024-03-08T09:55:49;100856.00;;;7.13;100.00
64521;BME280;50896;46.714;17.322;2024-03-08T09:58:16;100854.97;;;7.25;100.00
64521;BME280;50896;46.714;17.322;2024-03-08T10:01:03;100852.78;;;7.30;100.00
64521;BME280;50896;46.714;17.322;2024-03-08T10:03:32;100852.97;;;7.39;100.00
64521;BME280;50896;46.714;17.322;2024-03-08T10:05:59;100844.19;;;7.38;100.00
64521;BME280;50896;46.714;17.322;2024-03-08T10:08:28;100860.06;;;7.38;100.00
64521;BME280;50896;46.714;17.322;2024-03-08T10:10:57;100861.00;;;7.27;100.00
64521;BME280;50896;46.714;17.322;2024-03-08T10:13:25;100858.28;;;7.39;100.00
64521;BME280;50896;46.714;17.322;2024-03-08T10:15:55;100865.63;;;7.35;100.00
64521;BME280;50896;46.714;17.322;2024-03-08T10:18:22;100855.16;;;7.33;100.00
64521;BME280;50896;46.714;17.322;2024-03-08T10:21:06;100864.47;;;7.28;100.00
64521;BME280;50896;46.714;17.322;2024-03-08T10:23:34;100865.63;;;7.35;100.00
64521;BME280;50896;46.714;17.322;2024-03-08T10:26:17;100866.84;;;7.31;100.00
64521;BME280;50896;46.714;17.322;2024-03-08T10:28:46;100860.88;;;7.29;100.00
64521;BME280;50896;46.714;17.322;2024-03-08T10:31:17;100854.91;;;7.36;100.00
64521;BME280;50896;46.714;17.322;2024-03-08T10:33:46;100840.31;;;7.42;100.00
64521;BME280;50896;46.714;17.322;2024-03-08T10:36:14;100845.28;;;7.57;100.00
64521;BME280;50896;46.714;17.322;2024-03-08T10:38:42;100835.06;;;7.52;100.00
64521;BME280;50896;46.714;17.322;2024-03-08T10:41:15;100835.00;;;7.63;100.00
64521;BME280;50896;46.714;17.322;2024-03-08T10:46:35;100838.09;;;8.19;100.00
64521;BME280;50896;46.714;17.322;2024-03-08T10:49:12;100833.44;;;8.62;100.00
64521;BME280;50896;46.714;17.322;2024-03-08T10:51:44;100845.72;;;8.92;100.00
64521;BME280;50896;46.714;17.322;2024-03-08T10:54:14;100837.16;;;9.08;100.00
64521;BME280;50896;46.714;17.322;2024-03-08T10:56:42;100839.78;;;9.28;100.00
64521;BME280;50896;46.714;17.322;2024-03-08T10:59:10;100828.88;;;9.40;100.00
64521;BME280;50896;46.714;17.322;2024-03-08T11:01:37;100832.91;;;9.45;100.00
64521;BME280;50896;46.714;17.322;2024-03-08T11:04:04;100825.63;;;9.47;100.00
64521;BME280;50896;46.714;17.322;2024-03-08T11:09:33;100817.13;;;9.33;100.00
64521;BME280;50896;46.714;17.322;2024-03-08T11:14:51;100816.56;;;8.72;100.00
64521;BME280;50896;46.714;17.322;2024-03-08T11:19:58;100826.41;;;8.31;100.00
64521;BME280;50896;46.714;17.322;2024-03-08T11:22:33;100816.06;;;8.18;100.00
64521;BME280;50896;46.714;17.322;2024-03-08T11:25:04;100816.34;;;8.15;100.00
64521;BME280;50896;46.714;17.322;2024-03-08T11:27:37;100810.28;;;7.94;100.00
64521;BME280;50896;46.714;17.322;2024-03-08T11:30:06;100816.16;;;7.87;100.00
64521;BME280;50896;46.714;17.322;2024-03-08T11:32:45;100813.94;;;7.93;100.00
64521;BME280;50896;46.714;17.322;2024-03-08T11:35:22;100816.00;;;7.89;100.00
64521;BME280;50896;46.714;17.322;2024-03-08T11:37:52;100809.88;;;7.89;100.00
64521;BME280;50896;46.714;17.322;2024-03-08T11:40:19;100809.84;;;7.79;100.00
64521;BME280;50896;46.714;17.322;2024-03-08T11:42:48;100790.09;;;7.83;100.00
64521;BME280;50896;46.714;17.322;2024-03-08T11:45:15;100782.94;;;7.74;100.00
64521;BME280;50896;46.714;17.322;2024-03-08T11:47:44;100792.00;;;7.81;100.00
64521;BME280;50896;46.714;17.322;2024-03-08T11:50:16;100790.25;;;7.91;100.00
64521;BME280;50896;46.714;17.322;2024-03-08T11:52:46;100787.59;;;7.91;100.00
64521;BME280;50896;46.714;17.322;2024-03-08T11:55:13;100782.56;;;7.98;100.00
64521;BME280;50896;46.714;17.322;2024-03-08T11:57:40;100788.44;;;8.01;100.00
64521;BME280;50896;46.714;17.322;2024-03-08T12:00:19;100788.44;;;8.01;100.00
64521;BME280;50896;46.714;17.322;2024-03-08T12:03:03;100783.03;;;8.13;100.00
64521;BME280;50896;46.714;17.322;2024-03-08T12:05:30;100779.13;;;8.17;100.00
64521;BME280;50896;46.714;17.322;2024-03-08T12:08:01;100784.88;;;8.22;100.00
64521;BME280;50896;46.714;17.322;2024-03-08T12:10:29;100778.84;;;8.20;100.00
64521;BME280;50896;46.714;17.322;2024-03-08T12:12:58;100776.50;;;8.27;100.00
64521;BME280;50896;46.714;17.322;2024-03-08T12:15:28;100767.16;;;8.32;100.00
64521;BME280;50896;46.714;17.322;2024-03-08T12:17:56;100769.22;;;8.38;100.00
64521;BME280;50896;46.714;17.322;2024-03-08T12:20:25;100770.13;;;8.49;100.00
64521;BME280;50896;46.714;17.322;2024-03-08T12:22:58;100768.44;;;8.48;100.00
64521;BME280;50896;46.714;17.322;2024-03-08T12:25:32;100762.03;;;8.50;100.00
64521;BME280;50896;46.714;17.322;2024-03-08T12:28:09;100762.69;;;8.62;100.00
64521;BME280;50896;46.714;17.322;2024-03-08T12:30:48;100767.19;;;8.62;100.00
64521;BME280;50896;46.714;17.322;2024-03-08T12:33:16;100764.25;;;8.45;100.00
64521;BME280;50896;46.714;17.322;2024-03-08T12:35:54;100764.81;;;8.49;100.00
64521;BME280;50896;46.714;17.322;2024-03-08T12:38:23;100759.22;;;8.62;100.00
64521;BME280;50896;46.714;17.322;2024-03-08T12:41:00;100753.50;;;8.66;100.00
64521;BME280;50896;46.714;17.322;2024-03-08T12:43:28;100761.16;;;8.79;100.00
64521;BME280;50896;46.714;17.322;2024-03-08T12:46:00;100740.50;;;8.83;100.00
64521;BME280;50896;46.714;17.322;2024-03-08T12:48:27;100746.38;;;8.77;100.00
64521;BME280;50896;46.714;17.322;2024-03-08T12:50:54;100750.97;;;8.75;100.00
64521;BME280;50896;46.714;17.322;2024-03-08T12:53:21;100747.06;;;8.79;100.00
64521;BME280;50896;46.714;17.322;2024-03-08T12:55:50;100747.06;;;8.69;100.00
64521;BME280;50896;46.714;17.322;2024-03-08T12:58:17;100750.44;;;8.61;100.00